Terminal Aerodrome Forecast
Issued by NWS Sioux Falls, SD

Home | Current Version | Previous Version | Graphics & Text | Print | Product List | Glossary Off
Versions: 1 2 3 4 5 6 7 8 9 10 11 12 13 14 15 16 17 18

000
FTUS43 KFSD 252320
TAFFSD
TAF
KFSD 252320Z 2600/2624 14009KT P6SM OVC070
     FM260200 15009KT 2SM -SN OVC025
     FM260400 11007KT 1SM -SN OVC010
     FM260900 36011KT 4SM -SN OVC007
     FM261300 34017G27KT P6SM OVC008
     FM261600 35020G30KT P6SM OVC015
     FM262000 34017G25KT P6SM SCT015=

USA.gov is the U.S. government's official web portal to all federal, state and local government web resources and services.